createdAt,value
2022-10-06T00:00:19.875Z,56.24
2022-10-06T00:01:19.902Z,53.98
2022-10-06T00:02:19.896Z,51.72
2022-10-06T00:03:19.810Z,56.88
2022-10-06T00:04:19.806Z,54.95
2022-10-06T00:05:19.830Z,52.21
2022-10-06T00:06:19.826Z,51.72
2022-10-06T00:07:19.855Z,51.24
2022-10-06T00:08:19.812Z,51.72
2022-10-06T00:09:19.783Z,50.92
2022-10-06T00:10:19.817Z,50.11
2022-10-06T00:11:19.781Z,51.24
2022-10-06T00:12:20.763Z,51.24
2022-10-06T00:13:19.778Z,53.82
2022-10-06T00:14:19.747Z,52.85
2022-10-06T00:15:19.752Z,52.53
2022-10-06T00:16:19.807Z,52.69
2022-10-06T00:17:19.763Z,49.15
2022-10-06T00:18:19.724Z,49.15
2022-10-06T00:19:19.745Z,50.60
2022-10-06T00:20:19.697Z,51.56
2022-10-06T00:21:19.726Z,52.69
2022-10-06T00:22:19.679Z,51.56
2022-10-06T00:23:19.699Z,51.40
2022-10-06T00:24:19.678Z,49.63
2022-10-06T00:25:19.679Z,51.24
2022-10-06T00:26:19.687Z,50.92
2022-10-06T00:27:19.654Z,53.17
2022-10-06T00:28:19.694Z,51.56
2022-10-06T00:29:19.642Z,52.37
2022-10-06T00:30:19.668Z,52.21
2022-10-06T00:31:19.967Z,55.27
2022-10-06T00:32:19.646Z,50.27
2022-10-06T00:33:19.616Z,50.76
2022-10-06T00:34:19.610Z,50.76
2022-10-06T00:35:19.594Z,51.56
2022-10-06T00:36:19.595Z,51.56
2022-10-06T00:37:19.591Z,50.76
2022-10-06T00:38:19.595Z,50.92
2022-10-06T00:39:19.562Z,49.47
2022-10-06T00:40:19.585Z,49.79
2022-10-06T00:41:19.559Z,50.76
2022-10-06T00:42:19.577Z,52.85
2022-10-06T00:43:19.542Z,51.08
2022-10-06T00:44:19.536Z,51.56
2022-10-06T00:45:19.544Z,51.40
2022-10-06T00:46:19.629Z,48.98
2022-10-06T00:47:19.525Z,49.63
2022-10-06T00:48:19.541Z,50.60
2022-10-06T00:49:19.501Z,51.56
2022-10-06T00:50:19.510Z,51.08
2022-10-06T00:51:19.490Z,51.72
2022-10-06T00:52:19.497Z,53.98
2022-10-06T00:53:19.475Z,53.82
2022-10-06T00:54:19.469Z,53.82
2022-10-06T00:55:19.474Z,50.27
2022-10-06T00:56:19.457Z,51.40
2022-10-06T00:57:19.521Z,51.56
2022-10-06T00:58:19.492Z,52.21
2022-10-06T00:59:19.449Z,51.72
2022-10-06T01:00:19.485Z,49.47
2022-10-06T01:01:19.480Z,50.43
2022-10-06T01:02:20.518Z,51.88
2022-10-06T01:03:19.409Z,50.76
2022-10-06T01:04:19.430Z,51.24
2022-10-06T01:05:19.429Z,51.56
2022-10-06T01:06:19.437Z,53.98
2022-10-06T01:07:19.387Z,51.24
2022-10-06T01:08:19.413Z,48.98
2022-10-06T01:09:19.426Z,50.92
2022-10-06T01:10:19.401Z,50.43
2022-10-06T01:11:19.360Z,51.24
2022-10-06T01:12:19.368Z,50.76
2022-10-06T01:13:19.345Z,51.40
2022-10-06T01:14:19.384Z,51.88
2022-10-06T01:15:19.342Z,52.37
2022-10-06T01:16:19.417Z,49.47
2022-10-06T01:17:19.308Z,49.63
2022-10-06T01:18:19.304Z,51.08
2022-10-06T01:19:19.310Z,51.08
2022-10-06T01:20:19.295Z,50.76
2022-10-06T01:21:19.327Z,51.24
2022-10-06T01:22:19.283Z,51.08
2022-10-06T01:23:19.294Z,51.56
2022-10-06T01:24:19.263Z,49.31
2022-10-06T01:25:19.262Z,51.72
2022-10-06T01:26:19.259Z,51.24
2022-10-06T01:27:19.243Z,50.92
2022-10-06T01:28:19.286Z,51.88
2022-10-06T01:29:19.227Z,52.53
2022-10-06T01:30:19.247Z,53.66
2022-10-06T01:31:19.310Z,52.69
2022-10-06T01:32:19.207Z,51.72
2022-10-06T01:33:19.219Z,51.56
2022-10-06T01:34:19.194Z,53.33
2022-10-06T01:35:19.181Z,52.21
2022-10-06T01:36:19.195Z,51.56
2022-10-06T01:37:19.183Z,51.24
2022-10-06T01:38:19.176Z,52.69
2022-10-06T01:39:19.167Z,49.15
2022-10-06T01:40:19.177Z,50.76
2022-10-06T01:41:19.164Z,51.08
2022-10-06T01:42:19.166Z,51.24
2022-10-06T01:43:19.144Z,50.92
2022-10-06T01:44:19.135Z,50.76
2022-10-06T01:45:19.138Z,51.08
2022-10-06T01:46:19.230Z,51.08
2022-10-06T01:47:19.125Z,47.53
2022-10-06T01:48:19.107Z,49.63
2022-10-06T01:49:19.114Z,49.79
2022-10-06T01:50:19.091Z,50.11
2022-10-06T01:51:19.111Z,51.08
2022-10-06T01:52:19.108Z,52.37
2022-10-06T01:53:19.077Z,51.08
2022-10-06T01:54:19.100Z,51.08
2022-10-06T01:55:19.075Z,51.56
2022-10-06T01:56:19.052Z,52.53
2022-10-06T01:57:19.059Z,49.79
2022-10-06T01:58:19.036Z,51.56
2022-10-06T01:59:19.097Z,50.92
2022-10-06T02:00:19.012Z,53.82
2022-10-06T02:01:19.095Z,54.95
2022-10-06T02:02:19.027Z,52.21
2022-10-06T02:03:19.029Z,49.15
2022-10-06T02:04:19.074Z,48.02
2022-10-06T02:05:18.992Z,49.47
2022-10-06T02:06:19.044Z,55.75
2022-10-06T02:07:18.971Z,50.76
2022-10-06T02:08:18.995Z,50.76
2022-10-06T02:09:18.971Z,51.40
2022-10-06T02:10:18.968Z,51.40
2022-10-06T02:11:18.951Z,51.24
2022-10-06T02:12:18.948Z,51.40
2022-10-06T02:13:18.963Z,51.72
2022-10-06T02:14:18.952Z,53.82
2022-10-06T02:15:18.929Z,54.95
2022-10-06T02:16:18.973Z,49.95
2022-10-06T02:17:18.928Z,50.76
2022-10-06T02:18:18.917Z,51.72
2022-10-06T02:19:18.907Z,51.72
2022-10-06T02:20:18.900Z,52.85
2022-10-06T02:21:18.888Z,49.95
2022-10-06T02:22:18.906Z,50.27
2022-10-06T02:23:18.935Z,54.46
2022-10-06T02:24:18.880Z,53.17
2022-10-06T02:25:18.861Z,52.37
2022-10-06T02:26:18.860Z,53.17
2022-10-06T02:27:18.835Z,54.30
2022-10-06T02:28:18.915Z,54.95
2022-10-06T02:29:18.847Z,54.30
2022-10-06T02:30:18.832Z,57.85
2022-10-06T02:31:18.904Z,56.40
2022-10-06T02:32:19.783Z,56.40
2022-10-06T02:33:18.810Z,53.82
2022-10-06T02:34:18.814Z,55.91
2022-10-06T02:35:18.807Z,53.66
2022-10-06T02:36:19.315Z,53.50
2022-10-06T02:37:18.780Z,56.40
2022-10-06T02:38:18.775Z,53.66
2022-10-06T02:39:18.758Z,57.04
2022-10-06T02:40:18.775Z,54.46
2022-10-06T02:41:18.759Z,56.40
2022-10-06T02:42:19.288Z,53.98
2022-10-06T02:43:18.752Z,53.98
2022-10-06T02:44:18.752Z,55.43
2022-10-06T02:45:18.747Z,53.50
2022-10-06T02:46:18.780Z,55.11
2022-10-06T02:47:18.721Z,51.88
2022-10-06T02:48:18.719Z,53.17
2022-10-06T02:49:18.723Z,52.53
2022-10-06T02:50:18.739Z,57.36
2022-10-06T02:51:18.726Z,56.40
2022-10-06T02:52:18.713Z,52.85
2022-10-06T02:53:18.686Z,52.85
2022-10-06T02:54:18.693Z,52.37
2022-10-06T02:55:18.665Z,52.21
2022-10-06T02:56:18.697Z,55.43
2022-10-06T02:57:18.682Z,57.04
2022-10-06T02:58:18.665Z,53.98
2022-10-06T02:59:18.689Z,55.43
2022-10-06T03:00:18.638Z,56.72
2022-10-06T03:01:18.710Z,53.01
2022-10-06T03:02:18.790Z,53.66
2022-10-06T03:03:18.656Z,53.01
2022-10-06T03:04:18.620Z,51.88
2022-10-06T03:05:18.637Z,53.01
2022-10-06T03:06:18.610Z,58.01
2022-10-06T03:07:18.609Z,57.20
2022-10-06T03:08:18.606Z,61.71
2022-10-06T03:09:18.588Z,55.75
2022-10-06T03:10:18.577Z,57.36
2022-10-06T03:11:18.613Z,55.59
2022-10-06T03:12:18.608Z,53.66
2022-10-06T03:13:18.573Z,55.75
2022-10-06T03:14:21.907Z,55.11
2022-10-06T03:15:19.552Z,56.07
2022-10-06T03:16:18.603Z,58.33
2022-10-06T03:17:18.573Z,55.11
2022-10-06T03:18:18.541Z,57.36
2022-10-06T03:19:18.529Z,59.78
2022-10-06T03:20:18.518Z,58.17
2022-10-06T03:21:18.532Z,56.07
2022-10-06T03:22:18.520Z,57.04
2022-10-06T03:23:18.505Z,55.11
2022-10-06T03:24:18.491Z,55.11
2022-10-06T03:25:18.526Z,55.91
2022-10-06T03:26:18.511Z,53.82
2022-10-06T03:27:18.488Z,52.53
2022-10-06T03:28:18.530Z,54.79
2022-10-06T03:29:18.467Z,57.04
2022-10-06T03:30:18.458Z,58.01
2022-10-06T03:31:18.473Z,64.13
2022-10-06T03:32:18.474Z,54.62
2022-10-06T03:33:18.447Z,52.69
2022-10-06T03:34:18.455Z,55.27
2022-10-06T03:35:18.438Z,55.59
2022-10-06T03:36:18.448Z,61.87
2022-10-06T03:37:18.450Z,56.40
2022-10-06T03:38:18.426Z,53.82
2022-10-06T03:39:18.395Z,64.78
2022-10-06T03:40:18.404Z,58.81
2022-10-06T03:41:18.399Z,56.56
2022-10-06T03:42:18.380Z,54.95
2022-10-06T03:43:18.541Z,58.01
2022-10-06T03:44:18.384Z,55.91
2022-10-06T03:45:18.383Z,54.30
2022-10-06T03:46:18.426Z,57.85
2022-10-06T03:47:18.375Z,55.27
2022-10-06T03:48:18.360Z,57.69
2022-10-06T03:49:18.351Z,65.90
2022-10-06T03:50:18.343Z,61.07
2022-10-06T03:51:18.416Z,57.85
2022-10-06T03:52:21.250Z,55.27
2022-10-06T03:53:19.328Z,67.35
2022-10-06T03:54:18.334Z,58.01
2022-10-06T03:55:18.321Z,58.17
2022-10-06T03:56:18.298Z,64.29
2022-10-06T03:57:18.306Z,59.62
2022-10-06T03:58:18.283Z,60.91
2022-10-06T03:59:18.283Z,64.45
2022-10-06T04:00:18.294Z,55.59
2022-10-06T04:01:21.097Z,58.49
2022-10-06T04:02:20.324Z,58.65
2022-10-06T04:03:18.261Z,60.75
2022-10-06T04:04:18.247Z,57.69
2022-10-06T04:05:18.271Z,65.42
2022-10-06T04:06:18.257Z,58.97
2022-10-06T04:07:18.254Z,56.72
2022-10-06T04:08:18.219Z,56.56
2022-10-06T04:09:18.233Z,57.52
2022-10-06T04:10:18.236Z,59.30
2022-10-06T04:11:18.225Z,59.94
2022-10-06T04:12:18.204Z,58.17
2022-10-06T04:13:18.200Z,58.49
2022-10-06T04:14:18.197Z,62.04
2022-10-06T04:15:18.196Z,58.97
2022-10-06T04:16:18.221Z,64.94
2022-10-06T04:17:18.192Z,55.91
2022-10-06T04:18:18.160Z,58.97
2022-10-06T04:19:18.160Z,56.72
2022-10-06T04:20:18.152Z,57.52
2022-10-06T04:21:18.145Z,58.97
2022-10-06T04:22:18.160Z,62.84
2022-10-06T04:23:18.181Z,61.87
2022-10-06T04:24:18.119Z,59.94
2022-10-06T04:25:18.125Z,65.10
2022-10-06T04:26:18.150Z,67.35
2022-10-06T04:27:18.124Z,65.74
2022-10-06T04:28:18.157Z,60.26
2022-10-06T04:29:18.102Z,62.84
2022-10-06T04:30:18.133Z,63.49
2022-10-06T04:31:18.184Z,58.65
2022-10-06T04:32:18.105Z,58.97
2022-10-06T04:33:18.074Z,56.88
2022-10-06T04:34:18.062Z,57.85
2022-10-06T04:35:18.058Z,58.17
2022-10-06T04:36:18.072Z,57.36
2022-10-06T04:37:18.058Z,58.01
2022-10-06T04:38:18.133Z,63.33
2022-10-06T04:39:18.039Z,61.87
2022-10-06T04:40:18.047Z,65.42
2022-10-06T04:41:18.050Z,71.06
2022-10-06T04:42:18.035Z,63.49
2022-10-06T04:43:18.024Z,59.62
2022-10-06T04:44:18.047Z,62.04
2022-10-06T04:45:18.002Z,65.90
2022-10-06T04:46:41.455Z,65.58
2022-10-06T04:47:19.993Z,68.00
2022-10-06T04:48:19.010Z,61.87
2022-10-06T04:49:20.302Z,58.81
2022-10-06T04:50:19.020Z,61.07
2022-10-06T04:51:17.968Z,64.61
2022-10-06T04:52:17.957Z,62.52
2022-10-06T04:53:17.980Z,64.78
2022-10-06T04:54:18.002Z,62.52
2022-10-06T04:55:19.412Z,61.39
2022-10-06T04:56:17.921Z,63.65
2022-10-06T04:57:17.973Z,60.91
2022-10-06T04:58:17.989Z,69.93
2022-10-06T04:59:17.948Z,58.97
2022-10-06T05:00:17.912Z,63.00
2022-10-06T05:01:17.938Z,64.61
2022-10-06T05:02:18.011Z,57.69
2022-10-06T05:03:17.914Z,63.81
2022-10-06T05:04:17.876Z,62.84
2022-10-06T05:05:17.959Z,57.85
2022-10-06T05:06:17.879Z,59.14
2022-10-06T05:07:17.887Z,59.62
2022-10-06T05:08:17.923Z,68.80
2022-10-06T05:09:17.870Z,65.26
2022-10-06T05:10:17.851Z,58.49
2022-10-06T05:11:20.329Z,66.06
2022-10-06T05:12:18.854Z,64.78
2022-10-06T05:13:17.828Z,63.81
2022-10-06T05:14:18.840Z,64.61
2022-10-06T05:15:17.844Z,62.52
2022-10-06T05:16:17.853Z,61.39
2022-10-06T05:17:17.804Z,64.94
2022-10-06T05:18:17.835Z,60.75
2022-10-06T05:19:17.778Z,62.52
2022-10-06T05:20:17.870Z,57.20
2022-10-06T05:21:17.769Z,66.55
2022-10-06T05:22:17.805Z,64.45
2022-10-06T05:23:17.774Z,58.49
2022-10-06T05:24:17.797Z,58.49
2022-10-06T05:25:17.774Z,61.23
2022-10-06T05:26:17.758Z,63.97
2022-10-06T05:27:17.769Z,65.10
2022-10-06T05:28:17.820Z,65.90
2022-10-06T05:29:17.731Z,67.19
2022-10-06T05:30:17.717Z,64.13
2022-10-06T05:31:17.747Z,64.61
2022-10-06T05:32:17.745Z,64.61
2022-10-06T05:33:17.689Z,65.58
2022-10-06T05:34:17.670Z,64.61
2022-10-06T05:35:18.682Z,69.45
2022-10-06T05:36:17.693Z,67.19
2022-10-06T05:37:17.745Z,60.10
2022-10-06T05:38:17.662Z,61.55
2022-10-06T05:39:17.651Z,61.71
2022-10-06T05:40:17.644Z,65.58
2022-10-06T05:41:17.664Z,66.39
2022-10-06T05:42:17.659Z,65.74
2022-10-06T05:43:17.627Z,68.32
2022-10-06T05:44:17.615Z,65.58
2022-10-06T05:45:17.647Z,60.59
2022-10-06T05:46:17.780Z,67.51
2022-10-06T05:47:17.618Z,66.39
2022-10-06T05:48:17.612Z,63.33
2022-10-06T05:49:17.597Z,67.19
2022-10-06T05:50:19.504Z,57.85
2022-10-06T05:51:17.573Z,69.13
2022-10-06T05:52:17.680Z,69.13
2022-10-06T05:53:17.550Z,63.65
2022-10-06T05:54:17.582Z,60.42
2022-10-06T05:55:17.558Z,62.20
2022-10-06T05:56:17.555Z,62.84
2022-10-06T05:57:17.533Z,61.87
2022-10-06T05:58:19.302Z,57.85
2022-10-06T05:59:17.535Z,68.96
2022-10-06T06:00:18.544Z,64.94
2022-10-06T06:01:17.604Z,65.74
2022-10-06T06:02:17.649Z,64.45
2022-10-06T06:03:17.522Z,67.35
2022-10-06T06:04:17.492Z,65.42
2022-10-06T06:05:17.499Z,68.80
2022-10-06T06:06:17.474Z,61.87
2022-10-06T06:07:17.486Z,67.35
2022-10-06T06:08:17.514Z,63.65
2022-10-06T06:09:17.518Z,61.71
2022-10-06T06:10:17.448Z,62.04
2022-10-06T06:11:17.490Z,66.55
2022-10-06T06:12:17.445Z,63.65
2022-10-06T06:13:17.434Z,67.03
2022-10-06T06:14:17.427Z,59.30
2022-10-06T06:15:17.414Z,64.29
2022-10-06T06:16:17.457Z,67.03
2022-10-06T06:17:17.426Z,58.33
2022-10-06T06:18:17.403Z,59.46
2022-10-06T06:19:17.377Z,58.81
2022-10-06T06:20:17.366Z,69.45
2022-10-06T06:21:18.394Z,61.55
2022-10-06T06:22:17.395Z,62.68
2022-10-06T06:23:17.395Z,61.07
2022-10-06T06:24:17.361Z,57.85
2022-10-06T06:25:17.350Z,55.75
2022-10-06T06:26:17.374Z,58.01
2022-10-06T06:27:17.355Z,58.65
2022-10-06T06:28:17.448Z,57.36
2022-10-06T06:29:17.323Z,65.10
2022-10-06T06:30:17.315Z,58.81
2022-10-06T06:31:20.321Z,63.16
2022-10-06T06:32:18.303Z,70.09
2022-10-06T06:33:17.294Z,56.24
2022-10-06T06:34:17.306Z,57.69
2022-10-06T06:35:17.308Z,67.84
2022-10-06T06:36:17.279Z,65.42
2022-10-06T06:37:17.294Z,63.65
2022-10-06T06:38:18.258Z,66.06
2022-10-06T06:39:17.258Z,68.96
2022-10-06T06:40:17.250Z,60.91
2022-10-06T06:41:17.245Z,58.49
2022-10-06T06:42:17.247Z,65.10
2022-10-06T06:43:17.244Z,60.59
2022-10-06T06:44:17.226Z,61.39
2022-10-06T06:45:17.245Z,68.32
2022-10-06T06:46:17.322Z,58.01
2022-10-06T06:47:17.221Z,64.94
2022-10-06T06:48:17.214Z,63.81
2022-10-06T06:49:17.210Z,62.68
2022-10-06T06:50:17.194Z,62.04
2022-10-06T06:51:17.199Z,62.52
2022-10-06T06:52:17.203Z,57.36
2022-10-06T06:53:17.175Z,62.04
2022-10-06T06:54:17.150Z,57.69
2022-10-06T06:55:17.162Z,55.59
2022-10-06T06:56:50.143Z,67.51
2022-10-06T06:57:17.122Z,63.81
2022-10-06T06:58:17.130Z,63.00
2022-10-06T06:59:17.166Z,64.13
2022-10-06T07:00:17.135Z,68.16
2022-10-06T07:01:17.146Z,61.71
2022-10-06T07:02:17.199Z,59.14
2022-10-06T07:03:32.795Z,60.59
2022-10-06T07:04:19.087Z,63.97
2022-10-06T07:05:17.090Z,66.87
2022-10-06T07:06:17.066Z,63.33
2022-10-06T07:07:17.090Z,67.35
2022-10-06T07:08:17.068Z,64.61
2022-10-06T07:09:17.828Z,70.74
2022-10-06T07:10:17.052Z,60.10
2022-10-06T07:11:17.044Z,67.19
2022-10-06T07:12:17.031Z,59.46
2022-10-06T07:13:17.504Z,62.52
2022-10-06T07:14:18.060Z,61.07
2022-10-06T07:15:17.088Z,57.52
2022-10-06T07:16:17.061Z,64.61
2022-10-06T07:17:16.993Z,59.46
2022-10-06T07:18:17.037Z,57.85
2022-10-06T07:19:20.092Z,55.59
2022-10-06T07:20:18.815Z,59.14
2022-10-06T07:21:16.976Z,67.19
2022-10-06T07:22:16.963Z,60.75
2022-10-06T07:23:16.976Z,65.90
2022-10-06T07:24:16.965Z,59.46
2022-10-06T07:25:19.449Z,57.20
2022-10-06T07:26:16.976Z,64.45
2022-10-06T07:27:16.925Z,65.26
2022-10-06T07:28:17.036Z,48.82
2022-10-06T07:29:17.115Z,53.82
2022-10-06T07:30:16.935Z,51.08
2022-10-06T07:31:16.953Z,54.14
2022-10-06T07:32:16.901Z,63.65
2022-10-06T07:33:16.912Z,59.14
2022-10-06T07:34:16.882Z,59.78
2022-10-06T07:35:16.945Z,62.52
2022-10-06T07:36:16.891Z,62.20
2022-10-06T07:37:16.866Z,63.16
2022-10-06T07:38:16.890Z,65.74
2022-10-06T07:39:16.879Z,58.97
2022-10-06T07:40:16.879Z,63.00
2022-10-06T07:41:19.821Z,64.13
2022-10-06T07:42:17.848Z,62.84
2022-10-06T07:43:16.925Z,56.24
2022-10-06T07:44:16.820Z,59.46
2022-10-06T07:45:16.876Z,52.85
2022-10-06T07:46:16.898Z,50.92
2022-10-06T07:47:16.819Z,61.23
2022-10-06T07:48:16.807Z,66.55
2022-10-06T07:49:16.815Z,55.91
2022-10-06T07:50:16.807Z,62.84
2022-10-06T07:51:16.915Z,59.62
2022-10-06T07:52:16.766Z,64.45
2022-10-06T07:53:16.753Z,53.17
2022-10-06T07:54:16.754Z,64.13
2022-10-06T07:55:16.782Z,61.23
2022-10-06T07:56:16.756Z,63.65
2022-10-06T07:57:16.783Z,66.06
2022-10-06T07:58:17.719Z,59.62
2022-10-06T07:59:19.312Z,60.42
2022-10-06T08:00:16.806Z,63.49
2022-10-06T08:01:16.775Z,62.36
2022-10-06T08:02:16.735Z,57.20
2022-10-06T08:03:17.007Z,66.55
2022-10-06T08:04:16.727Z,65.10
2022-10-06T08:05:16.675Z,56.88
2022-10-06T08:06:16.674Z,62.68
2022-10-06T08:07:16.658Z,61.07
2022-10-06T08:08:16.870Z,63.97
2022-10-06T08:09:16.675Z,57.36
2022-10-06T08:10:16.644Z,55.43
2022-10-06T08:11:16.656Z,63.49
2022-10-06T08:12:16.620Z,66.06
2022-10-06T08:13:16.633Z,60.42
2022-10-06T08:14:16.609Z,63.16
2022-10-06T08:15:16.905Z,59.94
2022-10-06T08:16:16.635Z,59.46
2022-10-06T08:17:16.589Z,54.14
2022-10-06T08:18:33.779Z,51.88
2022-10-06T08:19:18.599Z,64.78
2022-10-06T08:20:16.646Z,62.84
2022-10-06T08:21:16.612Z,58.97
2022-10-06T08:22:16.601Z,57.52
2022-10-06T08:23:16.702Z,56.56
2022-10-06T08:24:16.550Z,64.13
2022-10-06T08:25:16.981Z,64.13
2022-10-06T08:26:16.565Z,64.13
2022-10-06T08:27:16.518Z,65.42
2022-10-06T08:28:16.630Z,59.30
2022-10-06T08:29:16.582Z,63.49
2022-10-06T08:30:16.518Z,62.20
2022-10-06T08:31:16.568Z,63.97
2022-10-06T08:32:16.513Z,68.64
2022-10-06T08:33:19.051Z,61.87
2022-10-06T08:34:16.477Z,62.20
2022-10-06T08:35:16.514Z,58.01
2022-10-06T08:36:16.471Z,62.20
2022-10-06T08:37:20.113Z,57.69
2022-10-06T08:38:17.478Z,59.94
2022-10-06T08:39:16.465Z,61.55
2022-10-06T08:40:16.472Z,64.13
2022-10-06T08:41:16.577Z,53.50
2022-10-06T08:42:16.440Z,53.98
2022-10-06T08:43:16.443Z,48.50
2022-10-06T08:44:16.469Z,52.69
2022-10-06T08:45:16.476Z,65.10
2022-10-06T08:46:18.816Z,63.65
2022-10-06T08:47:16.556Z,62.04
2022-10-06T08:48:16.408Z,58.33
2022-10-06T08:49:16.395Z,58.01
2022-10-06T08:50:16.415Z,58.65
2022-10-06T08:51:16.451Z,58.97
2022-10-06T08:52:16.382Z,65.10
2022-10-06T08:53:16.485Z,58.33
2022-10-06T08:54:16.438Z,53.82
2022-10-06T08:55:16.361Z,57.85
2022-10-06T08:56:16.348Z,53.33
2022-10-06T08:57:16.358Z,61.39
2022-10-06T08:58:16.335Z,66.55
2022-10-06T08:59:16.396Z,58.17
2022-10-06T09:00:19.622Z,56.24
2022-10-06T09:01:18.355Z,54.95
2022-10-06T09:02:16.393Z,61.71
2022-10-06T09:03:16.328Z,67.84
2022-10-06T09:04:16.428Z,63.33
2022-10-06T09:05:16.356Z,63.65
2022-10-06T09:06:16.289Z,65.26
2022-10-06T09:07:16.347Z,66.39
2022-10-06T09:08:16.375Z,62.52
2022-10-06T09:09:16.266Z,66.55
2022-10-06T09:10:16.303Z,64.45
2022-10-06T09:11:16.267Z,63.65
2022-10-06T09:12:16.291Z,62.84
2022-10-06T09:13:20.969Z,62.52
2022-10-06T09:14:18.259Z,67.03
2022-10-06T09:15:16.250Z,56.88
2022-10-06T09:16:16.310Z,61.07
2022-10-06T09:17:16.238Z,53.50
2022-10-06T09:18:16.519Z,61.07
2022-10-06T09:19:16.459Z,55.59
2022-10-06T09:20:16.221Z,61.23
2022-10-06T09:21:16.328Z,61.87
2022-10-06T09:22:16.240Z,64.61
2022-10-06T09:23:16.216Z,60.26
2022-10-06T09:24:16.224Z,57.85
2022-10-06T09:25:16.185Z,52.53
2022-10-06T09:26:16.169Z,52.37
2022-10-06T09:27:16.180Z,60.10
2022-10-06T09:28:16.250Z,59.30
2022-10-06T09:29:16.152Z,62.68
2022-10-06T09:30:16.169Z,67.35
2022-10-06T09:31:16.234Z,57.52
2022-10-06T09:32:16.152Z,63.16
2022-10-06T09:33:16.147Z,61.71
2022-10-06T09:34:16.144Z,53.17
2022-10-06T09:35:16.111Z,57.52
2022-10-06T09:36:16.108Z,63.97
2022-10-06T09:37:16.155Z,66.55
2022-10-06T09:38:16.099Z,63.33
2022-10-06T09:39:16.111Z,53.66
2022-10-06T09:40:16.116Z,50.76
2022-10-06T09:41:16.097Z,58.33
2022-10-06T09:42:16.090Z,57.52
2022-10-06T09:43:16.078Z,51.88
2022-10-06T09:44:16.070Z,54.79
2022-10-06T09:45:16.160Z,56.07
2022-10-06T09:46:16.077Z,68.48
2022-10-06T09:47:16.046Z,55.75
2022-10-06T09:48:16.036Z,60.75
2022-10-06T09:49:16.050Z,60.91
2022-10-06T09:50:16.065Z,64.61
2022-10-06T09:51:16.037Z,64.45
2022-10-06T09:52:16.008Z,62.52
2022-10-06T09:53:16.040Z,63.65
2022-10-06T09:54:16.000Z,61.55
2022-10-06T09:55:16.008Z,63.65
2022-10-06T09:56:16.000Z,61.55
2022-10-06T09:57:15.977Z,56.07
2022-10-06T09:58:15.979Z,63.16
2022-10-06T09:59:15.984Z,56.07
2022-10-06T10:00:16.055Z,53.50
2022-10-06T10:01:16.076Z,61.07
2022-10-06T10:02:15.960Z,59.14
2022-10-06T10:03:16.068Z,62.68
2022-10-06T10:04:20.686Z,64.13
2022-10-06T10:05:16.983Z,57.69
2022-10-06T10:06:15.956Z,57.20
2022-10-06T10:07:15.930Z,61.23
2022-10-06T10:08:15.955Z,60.59
2022-10-06T10:09:17.850Z,67.19
2022-10-06T10:10:15.959Z,65.58
2022-10-06T10:11:15.920Z,65.42
2022-10-06T10:12:15.931Z,66.71
2022-10-06T10:13:15.952Z,62.68
2022-10-06T10:14:15.935Z,56.40
2022-10-06T10:15:15.896Z,57.20
2022-10-06T10:16:15.953Z,64.78
2022-10-06T10:17:15.917Z,62.36
2022-10-06T10:18:15.918Z,59.14
2022-10-06T10:19:15.883Z,59.78
2022-10-06T10:20:15.894Z,62.20
2022-10-06T10:21:15.870Z,62.36
2022-10-06T10:22:15.903Z,62.68
2022-10-06T10:23:15.870Z,62.20
2022-10-06T10:24:15.854Z,59.14
2022-10-06T10:25:15.838Z,61.07
2022-10-06T10:26:15.838Z,58.81
2022-10-06T10:27:15.844Z,66.39
2022-10-06T10:28:15.912Z,67.51
2022-10-06T10:29:15.883Z,52.53
2022-10-06T10:30:15.830Z,57.52
2022-10-06T10:31:15.852Z,63.65
2022-10-06T10:32:15.803Z,68.48
2022-10-06T10:33:15.876Z,58.49
2022-10-06T10:34:25.221Z,64.94
2022-10-06T10:35:17.806Z,62.84
2022-10-06T10:36:15.801Z,60.91
2022-10-06T10:37:15.791Z,56.07
2022-10-06T10:38:15.830Z,63.97
2022-10-06T10:39:15.789Z,60.10
2022-10-06T10:40:15.782Z,53.82
2022-10-06T10:41:16.376Z,58.01
2022-10-06T10:42:15.764Z,51.72
2022-10-06T10:43:15.775Z,54.95
2022-10-06T10:44:15.747Z,66.55
2022-10-06T10:45:15.786Z,59.46
2022-10-06T10:46:15.776Z,57.20
2022-10-06T10:47:15.778Z,64.45
2022-10-06T10:48:15.737Z,55.43
2022-10-06T10:49:15.756Z,52.85
2022-10-06T10:50:15.776Z,64.45
2022-10-06T10:51:16.380Z,61.71
2022-10-06T10:52:15.704Z,55.75
2022-10-06T10:53:15.749Z,58.33
2022-10-06T10:54:15.720Z,58.17
2022-10-06T10:55:15.692Z,58.97
2022-10-06T10:56:15.744Z,55.75
2022-10-06T10:57:15.725Z,64.94
2022-10-06T10:58:16.348Z,60.26
2022-10-06T10:59:15.684Z,60.59
2022-10-06T11:00:15.669Z,60.91
2022-10-06T11:01:15.803Z,65.10
2022-10-06T11:02:15.701Z,65.74
2022-10-06T11:03:15.661Z,63.81
2022-10-06T11:04:15.660Z,61.39
2022-10-06T11:05:16.664Z,58.81
2022-10-06T11:06:15.680Z,64.45
2022-10-06T11:07:15.653Z,60.75
2022-10-06T11:08:15.681Z,64.13
2022-10-06T11:09:15.664Z,63.49
2022-10-06T11:10:15.752Z,65.58
2022-10-06T11:11:15.685Z,63.00
2022-10-06T11:12:15.637Z,64.94
2022-10-06T11:13:15.645Z,59.78
2022-10-06T11:14:15.710Z,69.13
2022-10-06T11:15:15.649Z,63.33
2022-10-06T11:16:15.638Z,65.90
2022-10-06T11:17:15.600Z,64.61
2022-10-06T11:18:19.455Z,61.39
2022-10-06T11:19:16.653Z,65.10
2022-10-06T11:20:15.596Z,61.39
2022-10-06T11:21:15.591Z,58.65
2022-10-06T11:22:15.572Z,60.10
2022-10-06T11:23:15.572Z,67.35
2022-10-06T11:24:15.609Z,61.71
2022-10-06T11:25:15.615Z,71.38
2022-10-06T11:26:15.524Z,58.01
2022-10-06T11:27:15.533Z,65.74
2022-10-06T11:28:15.563Z,64.29
2022-10-06T11:29:15.508Z,67.51
2022-10-06T11:30:15.497Z,62.04
2022-10-06T11:31:20.193Z,65.74
2022-10-06T11:32:17.521Z,66.06
2022-10-06T11:33:15.488Z,64.29
2022-10-06T11:34:15.464Z,66.71
2022-10-06T11:35:15.465Z,64.13
2022-10-06T11:36:15.508Z,62.68
2022-10-06T11:37:16.404Z,60.59
2022-10-06T11:38:15.484Z,63.33
2022-10-06T11:39:15.484Z,65.26
2022-10-06T11:40:16.380Z,68.48
2022-10-06T11:41:15.456Z,57.36
2022-10-06T11:42:15.469Z,58.97
2022-10-06T11:43:15.499Z,67.51
2022-10-06T11:44:15.449Z,63.65
2022-10-06T11:45:15.430Z,59.14
2022-10-06T11:46:15.484Z,57.69
2022-10-06T11:47:15.474Z,60.10
2022-10-06T11:48:15.385Z,62.68
2022-10-06T11:49:15.403Z,64.45
2022-10-06T11:50:15.392Z,63.33
2022-10-06T11:51:16.396Z,48.34
2022-10-06T11:52:15.370Z,53.82
2022-10-06T11:53:15.360Z,60.26
2022-10-06T11:54:15.372Z,60.42
2022-10-06T11:55:15.371Z,61.87
2022-10-06T11:56:15.369Z,57.52
2022-10-06T11:57:15.349Z,63.00
2022-10-06T11:58:41.887Z,59.78
2022-10-06T11:59:17.352Z,68.16
2022-10-06T12:00:15.309Z,67.51
2022-10-06T12:01:15.312Z,57.52
2022-10-06T12:02:15.497Z,64.13
2022-10-06T12:03:15.396Z,60.42
2022-10-06T12:04:15.305Z,62.68
2022-10-06T12:05:49.617Z,64.94
2022-10-06T12:06:17.296Z,58.97
2022-10-06T12:07:15.293Z,66.87
2022-10-06T12:08:15.327Z,60.10
2022-10-06T12:09:15.916Z,64.61
2022-10-06T12:10:15.258Z,63.33
2022-10-06T12:11:15.279Z,54.95
2022-10-06T12:12:15.267Z,65.90
2022-10-06T12:13:51.018Z,68.48
2022-10-06T12:17:05.576Z,69.77
2022-10-06T12:17:08.508Z,67.68
2022-10-06T12:17:19.747Z,65.58
2022-10-06T12:18:16.471Z,65.74
2022-10-06T12:19:15.261Z,67.19
2022-10-06T12:20:15.214Z,67.19
2022-10-06T12:21:15.199Z,59.78
2022-10-06T12:22:15.205Z,65.26
2022-10-06T12:23:15.233Z,65.74
2022-10-06T12:24:15.293Z,63.65
2022-10-06T12:25:15.178Z,62.68
2022-10-06T12:26:16.174Z,59.14
2022-10-06T12:27:15.188Z,66.71
2022-10-06T12:28:15.256Z,64.78
2022-10-06T12:29:15.152Z,69.77
2022-10-06T12:30:16.188Z,64.78
2022-10-06T12:31:18.313Z,56.88
2022-10-06T12:32:16.121Z,68.96
2022-10-06T12:33:15.144Z,59.78
2022-10-06T12:34:15.102Z,68.00
2022-10-06T12:35:15.121Z,61.23
2022-10-06T12:36:15.325Z,68.00
2022-10-06T12:37:15.142Z,66.71
2022-10-06T12:38:15.135Z,67.51
2022-10-06T12:39:15.077Z,58.17
2022-10-06T12:40:15.126Z,69.13
2022-10-06T12:41:15.085Z,63.97
2022-10-06T12:42:15.122Z,60.75
2022-10-06T12:43:15.051Z,65.42
2022-10-06T12:44:15.053Z,65.26
2022-10-06T12:45:15.035Z,69.45
2022-10-06T12:46:15.082Z,65.42
2022-10-06T12:47:15.033Z,67.84
2022-10-06T12:48:16.262Z,63.97
2022-10-06T12:49:15.014Z,66.23
2022-10-06T12:50:14.989Z,63.81
2022-10-06T12:51:15.006Z,63.00
2022-10-06T12:52:15.029Z,64.78
2022-10-06T12:53:15.017Z,68.80